createdAt,value
2018-01-26T00:00:46.695Z,69.56
2018-01-26T00:01:55.869Z,68.99
2018-01-26T00:03:05.823Z,69.34
2018-01-26T00:04:15.515Z,69.18
2018-01-26T00:05:25.460Z,69.75
2018-01-26T00:06:35.400Z,69.34
2018-01-26T00:07:45.360Z,69.09
2018-01-26T00:08:55.309Z,69.56
2018-01-26T00:10:05.007Z,69.75
2018-01-26T00:11:14.948Z,69.46
2018-01-26T00:12:24.891Z,69.66
2018-01-26T00:13:34.824Z,69.75
2018-01-26T00:14:44.520Z,69.85
2018-01-26T00:15:54.468Z,69.94
2018-01-26T00:17:04.473Z,69.56
2018-01-26T00:18:13.903Z,69.85
2018-01-26T00:19:23.850Z,69.66
2018-01-26T00:20:33.533Z,70.23
2018-01-26T00:21:43.479Z,70.42
2018-01-26T00:22:53.424Z,70.23
2018-01-26T00:24:03.612Z,70.42
2018-01-26T00:25:13.563Z,69.66
2018-01-26T00:26:23.506Z,69.94
2018-01-26T00:27:33.445Z,70.42
2018-01-26T00:28:43.395Z,70.04
2018-01-26T00:29:53.084Z,69.85
2018-01-26T00:31:03.026Z,70.04
2018-01-26T00:32:13.013Z,70.04
2018-01-26T00:33:22.946Z,70.23
2018-01-26T00:34:32.889Z,70.23
2018-01-26T00:35:43.027Z,69.56
2018-01-26T00:36:52.970Z,70.19
2018-01-26T00:38:02.394Z,70.29
2018-01-26T00:39:11.826Z,70.51
2018-01-26T00:40:21.526Z,69.75
2018-01-26T00:41:31.471Z,69.85
2018-01-26T00:42:40.908Z,70.04
2018-01-26T00:43:50.852Z,69.56
2018-01-26T00:45:00.795Z,69.75
2018-01-26T00:46:10.744Z,69.75
2018-01-26T00:47:20.703Z,69.85
2018-01-26T00:48:30.656Z,69.46
2018-01-26T00:49:40.595Z,69.66
2018-01-26T00:50:50.535Z,69.85
2018-01-26T00:52:00.495Z,69.66
2018-01-26T00:53:10.442Z,69.75
2018-01-26T00:54:20.392Z,69.46
2018-01-26T00:55:30.339Z,69.56
2018-01-26T00:56:40.300Z,69.75
2018-01-26T00:57:50.271Z,69.75
2018-01-26T00:59:00.223Z,69.85
2018-01-26T01:00:10.404Z,70.32
2018-01-26T01:01:20.342Z,69.94
2018-01-26T01:02:30.290Z,70.51
2018-01-26T01:03:39.720Z,71.18
2018-01-26T01:04:49.663Z,71.37
2018-01-26T01:05:59.603Z,72.89
2018-01-26T01:07:09.308Z,73.55
2018-01-26T01:08:19.326Z,74.22
2018-01-26T01:09:29.271Z,74.03
2018-01-26T01:10:39.214Z,73.84
2018-01-26T01:11:48.898Z,74.41
2018-01-26T01:12:58.846Z,74.69
2018-01-26T01:14:08.791Z,74.51
2018-01-26T01:15:18.738Z,74.69
2018-01-26T01:16:28.699Z,74.22
2018-01-26T01:17:38.654Z,74.12
2018-01-26T01:18:48.380Z,74.12
2018-01-26T01:19:58.322Z,74.12
2018-01-26T01:21:08.280Z,74.12
2018-01-26T01:22:17.727Z,74.41
2018-01-26T01:23:27.411Z,74.51
2018-01-26T01:24:37.092Z,74.41
2018-01-26T01:25:46.787Z,73.93
2018-01-26T01:26:55.706Z,74.31
2018-01-26T01:28:05.393Z,74.31
2018-01-26T01:29:15.335Z,74.22
2018-01-26T01:30:24.771Z,73.99
2018-01-26T01:31:34.711Z,74.03
2018-01-26T01:32:44.403Z,73.61
2018-01-26T01:33:53.839Z,73.74
2018-01-26T01:35:03.295Z,73.71
2018-01-26T01:36:12.992Z,73.04
2018-01-26T01:37:22.679Z,72.85
2018-01-26T01:38:32.616Z,73.14
2018-01-26T01:39:42.309Z,72.56
2018-01-26T01:40:52.001Z,72.51
2018-01-26T01:42:01.432Z,72.79
2018-01-26T01:43:11.124Z,72.79
2018-01-26T01:44:20.552Z,72.79
2018-01-26T01:45:30.492Z,72.79
2018-01-26T01:46:40.177Z,72.79
2018-01-26T01:47:50.123Z,72.79
2018-01-26T01:49:00.072Z,72.79
2018-01-26T01:50:10.029Z,72.47
2018-01-26T01:51:20.244Z,72.66
2018-01-26T01:52:29.933Z,72.47
2018-01-26T01:53:39.896Z,72.19
2018-01-26T01:54:49.847Z,72.47
2018-01-26T01:55:59.524Z,71.94
2018-01-26T01:57:09.486Z,72.03
2018-01-26T01:58:19.426Z,71.94
2018-01-26T01:59:29.115Z,71.66
2018-01-26T02:00:39.056Z,72.03
2018-01-26T02:01:49.251Z,71.94
2018-01-26T02:02:59.193Z,72.22
2018-01-26T02:04:09.144Z,72.22
2018-01-26T02:05:19.083Z,72.03
2018-01-26T02:06:28.773Z,71.94
2018-01-26T02:07:38.473Z,72.03
2018-01-26T02:08:48.426Z,72.22
2018-01-26T02:09:58.109Z,72.03
2018-01-26T02:11:08.061Z,72.13
2018-01-26T02:12:18.014Z,72
2018-01-26T02:13:28.008Z,72.28
2018-01-26T02:14:37.944Z,72.03
2018-01-26T02:15:47.633Z,71.75
2018-01-26T02:16:57.333Z,71.84
2018-01-26T02:18:07.282Z,71.37
2018-01-26T02:19:16.960Z,71.33
2018-01-26T02:20:26.901Z,71.52
2018-01-26T02:21:36.852Z,71.23
2018-01-26T02:22:46.543Z,70.95
2018-01-26T02:23:56.242Z,70.38
2018-01-26T02:25:05.936Z,70.57
2018-01-26T02:26:15.880Z,70.7
2018-01-26T02:27:25.825Z,70.61
2018-01-26T02:28:35.774Z,70.61
2018-01-26T02:29:45.736Z,70.79
2018-01-26T02:30:55.680Z,70.61
2018-01-26T02:32:05.364Z,70.89
2018-01-26T02:33:15.315Z,71.08
2018-01-26T02:34:25.262Z,71.37
2018-01-26T02:35:35.223Z,70.99
2018-01-26T02:36:45.161Z,70.79
2018-01-26T02:37:55.113Z,70.89
2018-01-26T02:39:04.806Z,71.18
2018-01-26T02:40:14.491Z,71.75
2018-01-26T02:41:24.439Z,71.66
2018-01-26T02:42:34.141Z,72.7
2018-01-26T02:43:44.087Z,73.55
2018-01-26T02:44:54.039Z,73.84
2018-01-26T02:46:03.987Z,73.84
2018-01-26T02:47:13.676Z,73.84
2018-01-26T02:48:23.380Z,73.74
2018-01-26T02:49:33.065Z,74.03
2018-01-26T02:50:42.754Z,73.84
2018-01-26T02:51:52.699Z,74.12
2018-01-26T02:53:02.655Z,74.22
2018-01-26T02:54:12.608Z,74.12
2018-01-26T02:55:22.653Z,74.22
2018-01-26T02:56:32.602Z,74.22
2018-01-26T02:57:42.290Z,74.03
2018-01-26T02:58:51.981Z,74.79
2018-01-26T03:00:01.930Z,75.36
2018-01-26T03:01:11.628Z,75.26
2018-01-26T03:02:21.580Z,75.26
2018-01-26T03:03:31.281Z,74.88
2018-01-26T03:04:41.226Z,74.98
2018-01-26T03:05:50.907Z,75.07
2018-01-26T03:07:00.848Z,75.45
2018-01-26T03:08:10.539Z,75.26
2018-01-26T03:09:19.706Z,75.64
2018-01-26T03:10:29.639Z,76.31
2018-01-26T03:11:39.581Z,76.5
2018-01-26T03:12:49.538Z,77.07
2018-01-26T03:13:59.222Z,77.17
2018-01-26T03:15:09.442Z,77.17
2018-01-26T03:16:19.145Z,78.21
2018-01-26T03:17:29.093Z,78.4
2018-01-26T03:18:38.529Z,79.44
2018-01-26T03:19:48.213Z,79.63
2018-01-26T03:20:58.163Z,79.73
2018-01-26T03:22:08.115Z,79.25
2018-01-26T03:23:17.802Z,79.44
2018-01-26T03:24:27.729Z,79.44
2018-01-26T03:25:37.677Z,79.54
2018-01-26T03:26:47.775Z,79.92
2018-01-26T03:27:57.765Z,80.02
2018-01-26T03:29:07.439Z,80.58
2018-01-26T03:30:17.382Z,81.25
2018-01-26T03:31:27.359Z,80.77
2018-01-26T03:32:37.051Z,81.25
2018-01-26T03:33:46.755Z,80.68
2018-01-26T03:34:56.437Z,80.77
2018-01-26T03:36:06.388Z,80.87
2018-01-26T03:37:16.324Z,80.4
2018-01-26T03:38:26.275Z,80.58
2018-01-26T03:39:35.961Z,79.92
2018-01-26T03:40:45.911Z,79.63
2018-01-26T03:41:55.875Z,79.06
2018-01-26T03:43:05.816Z,78.88
2018-01-26T03:44:15.764Z,78.59
2018-01-26T03:45:25.706Z,78.21
2018-01-26T03:46:35.644Z,78.21
2018-01-26T03:47:45.642Z,78.11
2018-01-26T03:48:55.600Z,77.64
2018-01-26T03:50:05.548Z,77.64
2018-01-26T03:51:15.239Z,77.55
2018-01-26T03:52:25.442Z,77.45
2018-01-26T03:53:35.401Z,77.26
2018-01-26T03:54:45.359Z,76.97
2018-01-26T03:55:54.797Z,77.17
2018-01-26T03:57:04.243Z,76.75
2018-01-26T03:58:14.436Z,76.5
2018-01-26T03:59:24.381Z,76.31
2018-01-26T04:00:34.091Z,75.99
2018-01-26T04:01:43.516Z,76.08
2018-01-26T04:02:53.455Z,76.27
2018-01-26T04:04:03.399Z,76.18
2018-01-26T04:05:12.832Z,76.56
2018-01-26T04:06:22.513Z,76.65
2018-01-26T04:07:32.211Z,76.56
2018-01-26T04:08:42.205Z,76.27
2018-01-26T04:09:52.137Z,76.18
2018-01-26T04:11:01.832Z,76.18
2018-01-26T04:12:11.256Z,75.99
2018-01-26T04:13:21.193Z,75.99
2018-01-26T04:14:31.144Z,75.89
2018-01-26T04:15:40.829Z,76.27
2018-01-26T04:16:50.772Z,76.18
2018-01-26T04:18:00.716Z,76.18
2018-01-26T04:19:10.658Z,76.46
2018-01-26T04:20:20.091Z,76.27
2018-01-26T04:21:30.039Z,76.56
2018-01-26T04:22:39.980Z,76.84
2018-01-26T04:23:49.675Z,77.12
2018-01-26T04:24:59.616Z,77.41
2018-01-26T04:26:09.321Z,77.51
2018-01-26T04:27:19.268Z,77.31
2018-01-26T04:28:28.991Z,77.22
2018-01-26T04:29:38.930Z,77.31
2018-01-26T04:30:49.118Z,77.6
2018-01-26T04:31:58.804Z,78.08
2018-01-26T04:33:08.819Z,80.26
2018-01-26T04:34:18.254Z,80.74
2018-01-26T04:35:28.216Z,79.97
2018-01-26T04:36:38.161Z,79.79
2018-01-26T04:37:47.870Z,79.79
2018-01-26T04:38:57.558Z,80.03
2018-01-26T04:40:07.239Z,79.74
2018-01-26T04:41:17.182Z,79.84
2018-01-26T04:42:27.160Z,80.03
2018-01-26T04:43:37.104Z,79.17
2018-01-26T04:44:47.044Z,79.17
2018-01-26T04:45:57.000Z,78.7
2018-01-26T04:47:06.693Z,79.08
2018-01-26T04:48:16.638Z,78.99
2018-01-26T04:49:26.594Z,78.89
2018-01-26T04:50:36.541Z,79.94
2018-01-26T04:51:46.484Z,80.03
2018-01-26T04:52:56.441Z,79.74
2018-01-26T04:54:06.385Z,79.65
2018-01-26T04:55:16.322Z,79.65
2018-01-26T04:56:26.277Z,79.94
2018-01-26T04:57:36.232Z,79.94
2018-01-26T04:58:45.718Z,79.84
2018-01-26T04:59:55.694Z,79.65
2018-01-26T05:01:05.650Z,79.84
2018-01-26T05:02:15.596Z,79.94
2018-01-26T05:03:25.342Z,79.94
2018-01-26T05:04:35.276Z,79.94
2018-01-26T05:05:45.279Z,79.84
2018-01-26T05:06:55.226Z,80.03
2018-01-26T05:08:04.908Z,80.69
2018-01-26T05:09:14.859Z,80.32
2018-01-26T05:10:24.540Z,80.88
2018-01-26T05:11:34.483Z,80.88
2018-01-26T05:12:44.433Z,80.6
2018-01-26T05:13:54.379Z,80.88
2018-01-26T05:15:04.330Z,81.45
2018-01-26T05:16:14.278Z,82.03
2018-01-26T05:17:24.023Z,82.78
2018-01-26T05:18:33.968Z,82.59
2018-01-26T05:19:43.396Z,81.74
2018-01-26T05:20:53.334Z,81.41
2018-01-26T05:22:03.286Z,81.65
2018-01-26T05:23:13.237Z,82.12
2018-01-26T05:24:22.948Z,81.74
2018-01-26T05:25:32.888Z,81.84
2018-01-26T05:26:42.569Z,81.65
2018-01-26T05:27:52.273Z,81.93
2018-01-26T05:29:02.272Z,82.12
2018-01-26T05:30:12.281Z,82.55
2018-01-26T05:31:22.234Z,83.12
2018-01-26T05:32:31.922Z,83.97
2018-01-26T05:33:41.602Z,84.45
2018-01-26T05:34:51.810Z,84.07
2018-01-26T05:36:01.759Z,84.45
2018-01-26T05:37:11.700Z,83.78
2018-01-26T05:38:21.129Z,83.59
2018-01-26T05:39:31.073Z,83.59
2018-01-26T05:40:40.778Z,83.88
2018-01-26T05:41:50.732Z,83.88
2018-01-26T05:43:00.681Z,83.03
2018-01-26T05:44:10.618Z,83.88
2018-01-26T05:45:20.569Z,83.4
2018-01-26T05:46:30.509Z,83.22
2018-01-26T05:47:40.458Z,84.55
2018-01-26T05:48:50.401Z,84.07
2018-01-26T05:50:00.399Z,84.17
2018-01-26T05:51:10.603Z,83.88
2018-01-26T05:52:20.565Z,83.5
2018-01-26T05:53:30.509Z,82.84
2018-01-26T05:54:40.446Z,82.84
2018-01-26T05:55:50.138Z,83.22
2018-01-26T05:57:00.096Z,83.22
2018-01-26T05:58:10.040Z,83.4
2018-01-26T05:59:19.999Z,83.12
2018-01-26T06:00:29.958Z,83.59
2018-01-26T06:01:39.656Z,83.03
2018-01-26T06:02:49.353Z,83.12
2018-01-26T06:03:59.296Z,83.5
2018-01-26T06:05:09.031Z,82.93
2018-01-26T06:06:19.072Z,82.84
2018-01-26T06:07:29.053Z,83.12
2018-01-26T06:08:39.000Z,82.46
2018-01-26T06:09:48.940Z,82.55
2018-01-26T06:10:58.899Z,82.36
2018-01-26T06:12:08.589Z,82.27
2018-01-26T06:13:18.544Z,82.27
2018-01-26T06:14:28.505Z,81.88
2018-01-26T06:15:38.473Z,81.79
2018-01-26T06:16:48.415Z,81.98
2018-01-26T06:17:58.117Z,81.79
2018-01-26T06:19:07.792Z,81.79
2018-01-26T06:20:17.727Z,81.88
2018-01-26T06:21:27.740Z,82.36
2018-01-26T06:22:37.681Z,82.55
2018-01-26T06:23:47.636Z,82.17
2018-01-26T06:24:57.320Z,82.36
2018-01-26T06:26:06.491Z,81.88
2018-01-26T06:27:16.448Z,81.98
2018-01-26T06:28:26.411Z,82.65
2018-01-26T06:29:36.359Z,82.36
2018-01-26T06:30:46.293Z,82.55
2018-01-26T06:31:56.231Z,82.55
2018-01-26T06:33:06.178Z,82.17
2018-01-26T06:34:16.136Z,81.85
2018-01-26T06:35:25.819Z,81.88
2018-01-26T06:36:35.514Z,81.88
2018-01-26T06:37:45.197Z,82.51
2018-01-26T06:38:55.149Z,82.23
2018-01-26T06:40:04.851Z,82.13
2018-01-26T06:41:14.800Z,82.51
2018-01-26T06:42:24.502Z,82.55
2018-01-26T06:43:34.452Z,82.23
2018-01-26T06:44:44.427Z,82.7
2018-01-26T06:45:54.413Z,82.23
2018-01-26T06:47:04.364Z,82.42
2018-01-26T06:48:14.097Z,81.66
2018-01-26T06:49:23.793Z,82.6
2018-01-26T06:50:33.834Z,82.32
2018-01-26T06:51:43.525Z,82.32
2018-01-26T06:52:53.479Z,81.94
2018-01-26T06:54:03.424Z,81.94
2018-01-26T06:55:13.374Z,82.04
2018-01-26T06:56:23.314Z,81.66
2018-01-26T06:57:33.008Z,81.85
2018-01-26T06:58:42.968Z,81.85
2018-01-26T06:59:52.660Z,81.66
2018-01-26T07:01:02.622Z,81.66
2018-01-26T07:02:12.065Z,81.66
2018-01-26T07:03:22.015Z,81.75
2018-01-26T07:04:32.222Z,81.85
2018-01-26T07:05:42.160Z,81.56
2018-01-26T07:06:51.840Z,82.04
2018-01-26T07:08:01.791Z,81.75
2018-01-26T07:09:11.751Z,81.47
2018-01-26T07:10:21.439Z,81.18
2018-01-26T07:11:30.623Z,81.41
2018-01-26T07:12:40.581Z,81.04
2018-01-26T07:13:50.026Z,81.41
2018-01-26T07:14:59.754Z,81.56
2018-01-26T07:16:09.454Z,81.85
2018-01-26T07:17:19.453Z,82.23
2018-01-26T07:18:29.149Z,81.66
2018-01-26T07:19:39.102Z,81.37
2018-01-26T07:20:48.793Z,81.47
2018-01-26T07:21:58.736Z,82.13
2018-01-26T07:23:08.678Z,81.66
2018-01-26T07:24:18.618Z,81.66
2018-01-26T07:25:28.316Z,81.85
2018-01-26T07:26:38.067Z,81.75
2018-01-26T07:27:47.754Z,81.56
2018-01-26T07:28:57.711Z,82.04
2018-01-26T07:30:07.667Z,82.13
2018-01-26T07:31:17.671Z,82.04
2018-01-26T07:32:27.633Z,81.85
2018-01-26T07:33:37.327Z,81.85
2018-01-26T07:34:47.018Z,81.85
2018-01-26T07:35:56.964Z,81.94
2018-01-26T07:37:06.914Z,81.85
2018-01-26T07:38:16.349Z,82.13
2018-01-26T07:39:26.056Z,81.75
2018-01-26T07:40:35.227Z,81.56
2018-01-26T07:41:45.170Z,81.56
2018-01-26T07:42:55.145Z,81.85
2018-01-26T07:44:04.882Z,81.94
2018-01-26T07:45:14.315Z,81.66
2018-01-26T07:46:24.010Z,81.47
2018-01-26T07:47:33.968Z,81.56
2018-01-26T07:48:43.910Z,81.56
2018-01-26T07:49:53.608Z,82.04
2018-01-26T07:51:03.311Z,82.23
2018-01-26T07:52:13.254Z,82.13
2018-01-26T07:53:23.195Z,82.13
2018-01-26T07:54:33.140Z,81.85
2018-01-26T07:55:42.581Z,81.66
2018-01-26T07:56:52.025Z,81.94
2018-01-26T07:58:01.454Z,81.85
2018-01-26T07:59:11.435Z,82.04
2018-01-26T08:00:21.404Z,81.75
2018-01-26T08:01:31.379Z,81.66
2018-01-26T08:02:41.367Z,81.75
2018-01-26T08:03:51.337Z,81.75
2018-01-26T08:05:01.026Z,81.56
2018-01-26T08:06:10.979Z,81.85
2018-01-26T08:07:20.943Z,81.94
2018-01-26T08:08:30.635Z,81.66
2018-01-26T08:09:40.335Z,81.85
2018-01-26T08:10:49.779Z,81.75
2018-01-26T08:11:59.480Z,81.85
2018-01-26T08:13:09.482Z,82.89
2018-01-26T08:14:19.457Z,82.6
2018-01-26T08:15:29.771Z,82.7
2018-01-26T08:16:39.712Z,82.6
2018-01-26T08:17:49.665Z,82.7
2018-01-26T08:18:59.617Z,81.75
2018-01-26T08:20:09.640Z,82.04
2018-01-26T08:21:19.215Z,81.75
2018-01-26T08:22:29.232Z,82.23
2018-01-26T08:23:39.019Z,81.75
2018-01-26T08:24:48.452Z,82.32
2018-01-26T08:25:58.412Z,82.13
2018-01-26T08:27:08.358Z,81.85
2018-01-26T08:28:18.307Z,81.75
2018-01-26T08:29:28.268Z,81.94
2018-01-26T08:30:37.962Z,81.75
2018-01-26T08:31:47.647Z,82.32
2018-01-26T08:32:57.609Z,82.32
2018-01-26T08:34:07.589Z,82.6
2018-01-26T08:35:17.286Z,83.27
2018-01-26T08:36:27.248Z,83.27
2018-01-26T08:37:37.203Z,82.42
2018-01-26T08:38:47.169Z,82.13
2018-01-26T08:39:57.118Z,82.6
2018-01-26T08:41:07.074Z,83.65
2018-01-26T08:42:17.043Z,83.65
2018-01-26T08:43:26.999Z,83.17
2018-01-26T08:44:36.954Z,82.98
2018-01-26T08:45:46.900Z,83.17
2018-01-26T08:46:56.853Z,82.98
2018-01-26T08:48:06.796Z,83.08
2018-01-26T08:49:16.512Z,83.27
2018-01-26T08:50:26.524Z,83.17
2018-01-26T08:51:36.274Z,83.46
2018-01-26T08:52:45.961Z,83.55
2018-01-26T08:53:55.648Z,84.03
2018-01-26T08:55:05.587Z,84.69
2018-01-26T08:56:15.289Z,85.17
2018-01-26T08:57:25.351Z,84.98
2018-01-26T08:58:34.817Z,85.17
2018-01-26T08:59:44.508Z,85.17
2018-01-26T09:00:54.221Z,85.26
2018-01-26T09:02:04.210Z,85.45
2018-01-26T09:03:14.176Z,85.17
2018-01-26T09:04:24.163Z,85.17
2018-01-26T09:05:33.875Z,84.78
2018-01-26T09:06:43.880Z,84.98
2018-01-26T09:07:53.803Z,84.98
2018-01-26T09:09:03.512Z,84.5
2018-01-26T09:10:13.518Z,84.88
2018-01-26T09:11:23.524Z,84.59
2018-01-26T09:12:33.479Z,84.12
2018-01-26T09:13:43.432Z,84.12
2018-01-26T09:14:53.375Z,83.84
2018-01-26T09:16:03.074Z,84.22
2018-01-26T09:17:13.115Z,84.41
2018-01-26T09:18:23.089Z,84.41
2018-01-26T09:19:33.059Z,84.12
2018-01-26T09:20:42.493Z,83.36
2018-01-26T09:21:52.443Z,82.89
2018-01-26T09:23:02.158Z,82.6
2018-01-26T09:24:11.868Z,82.6
2018-01-26T09:25:21.832Z,83.08
2018-01-26T09:26:31.586Z,82.98
2018-01-26T09:27:41.289Z,83.36
2018-01-26T09:28:50.988Z,83.65
2018-01-26T09:30:00.942Z,83.36
2018-01-26T09:31:10.709Z,83.27
2018-01-26T09:32:20.722Z,82.6
2018-01-26T09:33:30.696Z,82.42
2018-01-26T09:34:40.645Z,81.85
2018-01-26T09:35:50.656Z,81.85
2018-01-26T09:37:00.668Z,81.75
2018-01-26T09:38:10.647Z,81.75
2018-01-26T09:39:20.610Z,81.75
2018-01-26T09:40:30.578Z,82.13
2018-01-26T09:41:40.271Z,82.23
2018-01-26T09:42:50.318Z,81.66
2018-01-26T09:44:00.334Z,81.56
2018-01-26T09:45:09.798Z,81.75
2018-01-26T09:46:19.772Z,81.85
2018-01-26T09:47:29.477Z,81.66
2018-01-26T09:48:39.544Z,81.75
2018-01-26T09:49:49.515Z,81.47
2018-01-26T09:50:59.214Z,81.98
2018-01-26T09:52:08.686Z,81.66
2018-01-26T09:53:18.640Z,81.85
2018-01-26T09:54:28.832Z,82.13
2018-01-26T09:55:38.524Z,81.66
2018-01-26T09:56:48.475Z,82.13
2018-01-26T09:57:58.174Z,82.32
2018-01-26T09:59:07.879Z,82.51
2018-01-26T10:00:17.877Z,82.32
2018-01-26T10:01:27.314Z,82.6
2018-01-26T10:02:37.256Z,82.23
2018-01-26T10:03:47.213Z,82.51
2018-01-26T10:04:57.190Z,82.51
2018-01-26T10:06:07.175Z,82.42
2018-01-26T10:07:16.931Z,82.6
2018-01-26T10:08:26.364Z,82.32
2018-01-26T10:09:35.822Z,82.23
2018-01-26T10:10:45.786Z,82.42
2018-01-26T10:11:55.730Z,81.56
2018-01-26T10:13:05.420Z,81.85
2018-01-26T10:14:15.415Z,81.85
2018-01-26T10:15:25.107Z,82.04
2018-01-26T10:16:35.085Z,80.99
2018-01-26T10:17:45.092Z,81.27
2018-01-26T10:18:54.828Z,81.04
2018-01-26T10:20:04.781Z,80.9
2018-01-26T10:21:14.740Z,81.18
2018-01-26T10:22:24.443Z,80.9
2018-01-26T10:23:34.392Z,80.65
2018-01-26T10:24:43.820Z,81.27
2018-01-26T10:25:53.809Z,81.27
2018-01-26T10:27:03.761Z,81.56
2018-01-26T10:28:13.767Z,82.08
2018-01-26T10:29:23.769Z,81.27
2018-01-26T10:30:33.477Z,81.09
2018-01-26T10:31:43.453Z,81.32
2018-01-26T10:32:53.416Z,81.32
2018-01-26T10:34:03.492Z,81.04
2018-01-26T10:35:13.487Z,80.94
2018-01-26T10:36:23.466Z,81.32
2018-01-26T10:37:33.204Z,80.84
2018-01-26T10:38:42.901Z,80.46
2018-01-26T10:39:53.222Z,80.37
2018-01-26T10:41:03.216Z,80.94
2018-01-26T10:42:13.166Z,80.56
2018-01-26T10:43:23.138Z,80.65
2018-01-26T10:44:32.822Z,80.84
2018-01-26T10:45:42.826Z,80.65
2018-01-26T10:46:52.529Z,80.46
2018-01-26T10:48:02.484Z,80.56
2018-01-26T10:49:12.444Z,80.37
2018-01-26T10:50:22.240Z,80.56
2018-01-26T10:51:32.239Z,79.71
2018-01-26T10:52:41.926Z,80.18
2018-01-26T10:53:51.875Z,80.56
2018-01-26T10:55:01.616Z,80.08
2018-01-26T10:56:11.055Z,80.37
2018-01-26T10:57:21.054Z,80.37
2018-01-26T10:58:30.749Z,80.84
2018-01-26T10:59:40.687Z,80.37
2018-01-26T11:00:50.395Z,80.18
2018-01-26T11:02:00.385Z,79.61
2018-01-26T11:03:10.147Z,79.8
2018-01-26T11:04:20.181Z,79.71
2018-01-26T11:05:30.136Z,79.71
2018-01-26T11:06:40.096Z,79.9
2018-01-26T11:07:50.073Z,79.52
2018-01-26T11:08:59.824Z,79.14
2018-01-26T11:10:09.793Z,79.42
2018-01-26T11:11:19.600Z,79.42
2018-01-26T11:12:29.582Z,79.33
2018-01-26T11:13:39.540Z,79.23
2018-01-26T11:14:49.241Z,78.75
2018-01-26T11:15:59.203Z,78.75
2018-01-26T11:17:09.161Z,78.38
2018-01-26T11:18:19.120Z,78.28
2018-01-26T11:19:29.081Z,78.19
2018-01-26T11:20:38.802Z,78.28
2018-01-26T11:21:48.493Z,78
2018-01-26T11:22:58.465Z,77.71
2018-01-26T11:24:08.425Z,77.33
2018-01-26T11:25:18.390Z,77.52
2018-01-26T11:26:28.349Z,77.81
2018-01-26T11:27:38.359Z,77.24
2018-01-26T11:28:48.340Z,77.43
2018-01-26T11:29:58.031Z,77.14
2018-01-26T11:31:07.987Z,77.43
2018-01-26T11:32:17.955Z,77.24
2018-01-26T11:33:27.986Z,76.95
2018-01-26T11:34:37.945Z,77.43
2018-01-26T11:35:47.674Z,77.43
2018-01-26T11:36:57.630Z,77.62
2018-01-26T11:38:07.598Z,76.57
2018-01-26T11:39:17.565Z,76.95
2018-01-26T11:40:27.252Z,76.39
2018-01-26T11:41:37.222Z,76.01
2018-01-26T11:42:47.191Z,75.43
2018-01-26T11:43:57.152Z,75.43
2018-01-26T11:45:07.116Z,75.05
2018-01-26T11:46:16.835Z,74.77
2018-01-26T11:47:26.792Z,74.58
2018-01-26T11:48:36.735Z,74.11
2018-01-26T11:49:46.429Z,73.82
2018-01-26T11:50:56.452Z,73.63
2018-01-26T11:52:06.408Z,73.63
2018-01-26T11:53:16.371Z,73.07
2018-01-26T11:54:26.336Z,72.49
2018-01-26T11:55:36.036Z,72.59
2018-01-26T11:56:45.733Z,72.4
2018-01-26T11:57:55.827Z,72.4
2018-01-26T11:59:05.795Z,72.25
2018-01-26T12:00:15.762Z,71.86
2018-01-26T12:01:25.728Z,71.77
2018-01-26T12:02:35.684Z,71.3
2018-01-26T12:03:45.147Z,71.67
2018-01-26T12:04:55.115Z,71.48
2018-01-26T12:06:05.135Z,71.39
2018-01-26T12:07:14.840Z,71.39
2018-01-26T12:08:24.539Z,71.2
2018-01-26T12:09:34.225Z,71.48
2018-01-26T12:10:44.186Z,71.39
2018-01-26T12:11:54.141Z,71.11
2018-01-26T12:13:04.117Z,71.3
2018-01-26T12:14:14.082Z,70.92
2018-01-26T12:15:24.062Z,71.01
2018-01-26T12:16:34.018Z,70.82
2018-01-26T12:17:43.718Z,70.82
2018-01-26T12:18:53.404Z,70.82
2018-01-26T12:20:03.405Z,70.82
2018-01-26T12:21:13.362Z,71.3
2018-01-26T12:22:23.078Z,71.3
2018-01-26T12:23:33.047Z,71.3
2018-01-26T12:24:42.756Z,70.82
2018-01-26T12:25:52.464Z,71.2
2018-01-26T12:27:02.159Z,71.01
2018-01-26T12:28:12.182Z,71.01
2018-01-26T12:29:22.141Z,71.01
2018-01-26T12:30:32.132Z,71.11
2018-01-26T12:31:42.090Z,71.01
2018-01-26T12:32:52.033Z,71.01
2018-01-26T12:34:01.775Z,71.11
2018-01-26T12:35:12.064Z,71.2
2018-01-26T12:36:21.784Z,71.2
2018-01-26T12:37:31.732Z,71.2
2018-01-26T12:38:41.716Z,71.01
2018-01-26T12:39:51.430Z,71.01
2018-01-26T12:41:01.454Z,71.11
2018-01-26T12:42:11.441Z,71.01
2018-01-26T12:43:21.448Z,70.95
2018-01-26T12:44:31.410Z,71.04
2018-01-26T12:45:41.396Z,71.04
2018-01-26T12:46:51.114Z,70.95
2018-01-26T12:48:00.846Z,71.14
2018-01-26T12:49:10.552Z,70.95
2018-01-26T12:50:20.545Z,71.04
2018-01-26T12:51:30.804Z,71.14
2018-01-26T12:52:40.686Z,70.86
2018-01-26T12:53:50.715Z,71.52
2018-01-26T12:55:00.440Z,71.52
2018-01-26T12:56:10.203Z,71.52
2018-01-26T12:57:20.138Z,71.81
2018-01-26T12:58:30.173Z,72.09
2018-01-26T12:59:40.166Z,72.28
2018-01-26T13:00:49.918Z,72
2018-01-26T13:01:59.829Z,72.38
2018-01-26T13:03:09.800Z,72.38
2018-01-26T13:04:19.828Z,72.47
2018-01-26T13:05:29.811Z,72.38
2018-01-26T13:06:39.814Z,72.28
2018-01-26T13:07:49.835Z,72.75
2018-01-26T13:08:59.553Z,73.8
2018-01-26T13:10:09.582Z,74.08
2018-01-26T13:11:19.561Z,73.99
2018-01-26T13:12:29.539Z,74.66
2018-01-26T13:13:39.492Z,75.32
2018-01-26T13:14:49.227Z,75.6
2018-01-26T13:15:59.202Z,76.46
2018-01-26T13:17:09.156Z,77.03
2018-01-26T13:18:19.117Z,77.03
2018-01-26T13:19:29.122Z,77.12
2018-01-26T13:20:39.344Z,76.75
2018-01-26T13:21:49.345Z,76.65
2018-01-26T13:22:59.326Z,77.03
2018-01-26T13:24:09.282Z,77.6
2018-01-26T13:25:19.055Z,77.45
2018-01-26T13:26:29.127Z,78.21
2018-01-26T13:27:38.872Z,79.63
2018-01-26T13:28:48.833Z,80.4
2018-01-26T13:29:58.538Z,80.87
2018-01-26T13:31:08.509Z,81.54
2018-01-26T13:32:18.223Z,82.29
2018-01-26T13:33:27.672Z,82.01
2018-01-26T13:34:37.386Z,82.77
2018-01-26T13:35:47.340Z,82.87
2018-01-26T13:36:56.844Z,83.72
2018-01-26T13:38:06.573Z,85.43
2018-01-26T13:39:16.307Z,86.67
2018-01-26T13:40:26.261Z,87.62
2018-01-26T13:41:36.248Z,90.37
2018-01-26T13:42:45.954Z,92.56
2018-01-26T13:43:55.691Z,92.85
2018-01-26T13:45:05.911Z,92.94
2018-01-26T13:46:15.881Z,92.66
2018-01-26T13:47:25.826Z,91.99
2018-01-26T13:48:35.286Z,91.99
2018-01-26T13:49:45.235Z,91.71
2018-01-26T13:50:55.220Z,92.66
2018-01-26T13:52:05.176Z,92.23
2018-01-26T13:53:14.889Z,91.28
2018-01-26T13:54:24.837Z,91.66
2018-01-26T13:55:34.793Z,91.38
2018-01-26T13:56:44.779Z,91.47
2018-01-26T13:57:54.775Z,90.8
2018-01-26T13:59:04.474Z,90.42
2018-01-26T14:00:14.432Z,89.95
2018-01-26T14:01:24.503Z,89.47
2018-01-26T14:02:34.449Z,89.47
2018-01-26T14:03:44.151Z,89.57
2018-01-26T14:04:53.592Z,89.47
2018-01-26T14:06:03.355Z,89.28
2018-01-26T14:07:13.297Z,89.38
2018-01-26T14:08:23.246Z,89.52
2018-01-26T14:09:33.199Z,89.28
2018-01-26T14:10:42.643Z,90.05
2018-01-26T14:11:52.666Z,89.76
2018-01-26T14:13:02.703Z,89.57
2018-01-26T14:14:12.692Z,89.57
2018-01-26T14:15:21.962Z,90.42
2018-01-26T14:16:31.920Z,90.42
2018-01-26T14:17:41.358Z,90.14
2018-01-26T14:18:51.329Z,90.52
2018-01-26T14:20:01.299Z,90.14
2018-01-26T14:21:11.267Z,89.9
2018-01-26T14:22:20.707Z,89.76
2018-01-26T14:23:30.681Z,89.76
2018-01-26T14:24:40.649Z,89.71
2018-01-26T14:25:50.332Z,90.23
2018-01-26T14:27:00.296Z,89.86
2018-01-26T14:28:10.241Z,89.76
2018-01-26T14:29:19.672Z,90.23
2018-01-26T14:30:29.646Z,90.05
2018-01-26T14:31:39.608Z,89.76
2018-01-26T14:32:49.570Z,89.47
2018-01-26T14:33:59.014Z,89.47
2018-01-26T14:35:08.715Z,89.38
2018-01-26T14:36:18.660Z,88.62
2018-01-26T14:37:28.465Z,88.62
2018-01-26T14:38:38.182Z,88.62
2018-01-26T14:39:48.163Z,88.15
2018-01-26T14:40:58.112Z,88.34
2018-01-26T14:42:07.812Z,88.43
2018-01-26T14:43:17.503Z,88.15
2018-01-26T14:44:27.457Z,89.09
2018-01-26T14:45:37.176Z,89.47
2018-01-26T14:46:47.135Z,89.76
2018-01-26T14:47:57.083Z,89.67
2018-01-26T14:49:07.041Z,89.28
2018-01-26T14:50:16.997Z,89.33
2018-01-26T14:51:26.952Z,89.8
2018-01-26T14:52:36.911Z,90.14
2018-01-26T14:53:46.862Z,90.61
2018-01-26T14:54:56.814Z,90.05
2018-01-26T14:56:06.775Z,89.86
2018-01-26T14:57:16.715Z,89.9
2018-01-26T14:58:26.688Z,90.23
2018-01-26T14:59:36.386Z,90.47
2018-01-26T15:00:46.331Z,91.28
2018-01-26T15:01:56.288Z,92.8